Strona główna
METAR-TAF:

METAR-TAF

Lotnisko :

Sullivan County International Airport

Monticello, Nowy Jork, Stany Zjednoczone

Szerokość geograficzna: 41-42N, Długość geograficzna: 074-48W, wysokość: 428 m

Aktualna obserwacja pogody

Raport powstał 33 minut temu, godzina 01:56 UTC
Wiatr 4 kt od zachód
Temperatura 17°C
Wilgotność 100%
Ciśnienie 1007 hPa
Widzialność: 9.7 km
Rozproszone chmury na wysokości 200 ft
zamglenie

METAR: KMSV 040156Z AUTO 27004KT 6SM BR SCT002 17/17 A2974 RMK AO2 SLP067 T01720167

czas: 22:29 (02:29 UTC)


TAF: brakujący

Obserwacja i prognoza pogody dla ponad 4000 lotnisk (raport METAR i TAF).

Dostępne stacje oznaczono żółtymi i czerwonymi punktami na mapie.

Najedź kursorem aby zobaczyć nazwę stacji.

Kliknij aby zobaczyć obserwacje i prognozy pogody.

Aby zmienić mapę: kliknij na zielony przycisk z czarnym krzyżykiem, aby powiększyć; na zielony przycisk z myślnikiem, aby pomniejszyć; na zielone strzałki, aby przejść do map sąsiednich.


METAR-TAF: